createdAt,value
2023-05-21T16:21:16.158Z,6.97
2023-05-21T16:26:21.671Z,7.03
2023-05-21T16:28:54.543Z,7.93
2023-05-21T16:31:27.511Z,7.40
2023-05-21T16:34:00.163Z,7.50
2023-05-21T16:36:37.663Z,7.45
2023-05-21T16:39:10.350Z,8.05
2023-05-21T16:41:43.784Z,7.45
2023-05-21T16:44:16.582Z,7.90
2023-05-21T16:46:50.880Z,7.40
2023-05-21T16:49:23.406Z,8.10
2023-05-21T16:51:55.948Z,8.85
2023-05-21T16:54:28.623Z,8.93
2023-05-21T16:57:01.626Z,8.20
2023-05-21T16:59:34.518Z,8.75
2023-05-21T17:02:09.235Z,8.57
2023-05-21T17:04:41.922Z,9.48
2023-05-21T17:07:16.242Z,8.25
2023-05-21T17:09:48.806Z,9.05
2023-05-21T17:12:21.320Z,6.95
2023-05-21T17:14:54.327Z,7.03
2023-05-21T17:17:27.107Z,7.47
2023-05-21T17:20:00.685Z,7.07
2023-05-21T17:22:33.378Z,6.45
2023-05-21T17:25:06.581Z,5.85
2023-05-21T17:30:12.146Z,4.25
2023-05-21T17:32:44.812Z,4.55
2023-05-21T17:35:20.280Z,5.30
2023-05-21T17:37:53.824Z,4.80
2023-05-21T17:40:26.488Z,4.57
2023-05-21T17:42:59.202Z,4.55
2023-05-21T17:45:31.816Z,4.40
2023-05-21T17:48:04.737Z,5.20
2023-05-21T17:50:37.314Z,4.75
2023-05-21T17:53:09.926Z,4.55
2023-05-21T17:55:42.518Z,5.05
2023-05-21T17:58:15.088Z,5.10
2023-05-21T18:00:47.649Z,5.05
2023-05-21T18:03:20.283Z,5.53
2023-05-21T18:05:52.921Z,5.75
2023-05-21T18:08:25.501Z,5.38
2023-05-21T18:10:58.363Z,4.45
2023-05-21T18:13:31.197Z,4.57
2023-05-21T18:16:03.915Z,5.05
2023-05-21T18:18:36.595Z,4.22
2023-05-21T18:21:14.868Z,5.00
2023-05-21T18:23:47.610Z,5.68
2023-05-21T18:26:20.589Z,4.85
2023-05-21T18:28:53.502Z,5.32
2023-05-21T18:31:26.449Z,5.68
2023-05-21T18:33:59.129Z,6.32
2023-05-21T18:36:38.680Z,6.88
2023-05-21T18:39:11.445Z,5.05
2023-05-21T18:41:44.268Z,5.35
2023-05-21T18:44:16.897Z,5.30
2023-05-21T18:46:49.511Z,4.32
2023-05-21T18:49:22.265Z,5.20
2023-05-21T18:51:55.126Z,4.90
2023-05-21T18:54:27.809Z,5.53
2023-05-21T18:57:00.693Z,5.20
2023-05-21T18:59:33.439Z,6.30
2023-05-21T19:02:06.382Z,5.35
2023-05-21T19:04:39.384Z,7.10
2023-05-21T19:07:12.169Z,5.80
2023-05-21T19:09:44.949Z,5.82
2023-05-21T19:12:21.902Z,4.93
2023-05-21T19:17:27.228Z,5.47
2023-05-21T19:19:59.842Z,4.88
2023-05-21T19:22:32.501Z,5.80
2023-05-21T19:25:05.565Z,4.85
2023-05-21T19:27:38.314Z,4.60
2023-05-21T19:30:11.299Z,5.70
2023-05-21T19:32:43.975Z,5.18
2023-05-21T19:35:16.857Z,5.65
2023-05-21T19:37:49.485Z,4.50
2023-05-21T19:40:23.350Z,5.70
2023-05-21T19:42:56.119Z,5.05
2023-05-21T19:45:28.684Z,4.95
2023-05-21T19:48:01.671Z,4.85
2023-05-21T19:50:35.212Z,4.95
2023-05-21T19:53:07.913Z,5.10
2023-05-21T19:55:40.611Z,4.53
2023-05-21T19:58:16.927Z,4.47
2023-05-21T20:00:50.923Z,5.25
2023-05-21T20:03:24.540Z,5.60
2023-05-21T20:05:57.455Z,4.53
2023-05-21T20:08:30.378Z,5.40
2023-05-21T20:11:03.268Z,4.25
2023-05-21T20:13:35.904Z,5.70
2023-05-21T20:16:08.535Z,5.55
2023-05-21T20:18:41.939Z,5.88
2023-05-21T20:21:17.924Z,5.63
2023-05-21T20:23:51.445Z,4.93
2023-05-21T20:26:26.432Z,6.97
2023-05-21T20:28:59.123Z,6.57
2023-05-21T20:31:31.961Z,6.30
2023-05-21T20:34:09.245Z,6.50
2023-05-21T20:36:41.819Z,5.70
2023-05-21T20:42:14.167Z,5.25
2023-05-21T20:44:49.979Z,6.40
2023-05-21T20:47:23.587Z,6.00
2023-05-21T20:50:00.048Z,6.30
2023-05-21T20:52:32.701Z,6.18
2023-05-21T20:55:06.006Z,5.90
2023-05-21T20:57:38.745Z,6.13
2023-05-21T21:00:12.122Z,6.70
2023-05-21T21:02:44.993Z,5.88
2023-05-21T21:05:17.610Z,6.95
2023-05-21T21:07:50.148Z,5.90
2023-05-21T21:10:47.660Z,6.90
2023-05-21T21:13:20.280Z,7.20
2023-05-21T21:15:53.012Z,6.70
2023-05-21T21:18:25.609Z,6.65
2023-05-21T21:20:58.268Z,6.60
2023-05-21T21:23:30.868Z,6.13
2023-05-21T21:26:03.457Z,6.72
2023-05-21T21:28:36.257Z,6.75
2023-05-21T21:31:08.993Z,6.97
2023-05-21T21:33:41.622Z,7.50
2023-05-21T21:36:14.330Z,6.53
2023-05-21T21:38:47.030Z,6.95
2023-05-21T21:41:20.614Z,6.57
2023-05-21T21:43:53.285Z,6.28
2023-05-21T21:46:26.666Z,6.22
2023-05-21T21:48:59.404Z,6.15
2023-05-21T21:51:32.174Z,7.20
2023-05-21T21:54:04.925Z,7.10
2023-05-21T21:56:37.733Z,5.65
2023-05-21T21:59:10.415Z,6.43
2023-05-21T22:01:43.565Z,5.65
2023-05-21T22:06:48.987Z,5.80
2023-05-21T22:09:22.831Z,6.18
2023-05-21T22:11:55.710Z,5.80
2023-05-21T22:14:28.703Z,6.70
2023-05-21T22:17:01.418Z,5.32
2023-05-21T22:19:34.364Z,6.57
2023-05-21T22:22:06.945Z,6.38
2023-05-21T22:24:39.544Z,7.15
2023-05-21T22:27:12.113Z,6.53
2023-05-21T22:29:44.698Z,5.72
2023-05-21T22:32:17.423Z,6.38
2023-05-21T22:34:49.984Z,6.20
2023-05-21T22:37:23.923Z,6.10
2023-05-21T22:39:57.384Z,5.68
2023-05-21T22:42:29.985Z,6.03
2023-05-21T22:45:03.277Z,6.75
2023-05-21T22:47:39.816Z,6.55
2023-05-21T22:50:13.163Z,6.53
2023-05-21T22:52:45.737Z,6.45
2023-05-21T22:55:18.633Z,7.72
2023-05-21T22:57:51.272Z,7.93
2023-05-21T23:00:23.903Z,6.82
2023-05-21T23:02:56.860Z,7.10
2023-05-21T23:05:29.531Z,7.50
2023-05-21T23:08:02.236Z,7.47
2023-05-21T23:10:35.801Z,7.60
2023-05-21T23:13:08.449Z,6.78
2023-05-21T23:15:44.083Z,7.45
2023-05-21T23:18:16.920Z,6.43
2023-05-21T23:20:49.531Z,6.70
2023-05-21T23:23:22.082Z,6.10
2023-05-21T23:25:57.909Z,6.55
2023-05-21T23:28:30.535Z,6.20
2023-05-21T23:31:03.656Z,6.03
2023-05-21T23:36:09.047Z,6.00
2023-05-21T23:38:41.658Z,6.20
2023-05-21T23:41:14.466Z,6.47
2023-05-21T23:43:47.210Z,5.45
2023-05-21T23:46:19.873Z,5.63
2023-05-21T23:49:17.612Z,5.85
2023-05-21T23:51:51.003Z,5.93
2023-05-21T23:54:23.647Z,5.38
2023-05-21T23:56:56.298Z,5.60
2023-05-21T23:59:29.036Z,5.35
